sensor_id;sensor_type;location;lat;lon;timestamp;temperature;humidity
51765;DHT22;37835;53.256;6.456;2023-05-29T00:00:26;9.70;99.90
51765;DHT22;37835;53.256;6.456;2023-05-29T00:02:51;9.70;99.90
51765;DHT22;37835;53.256;6.456;2023-05-29T00:05:17;9.70;99.90
51765;DHT22;37835;53.256;6.456;2023-05-29T00:07:43;9.70;99.90
51765;DHT22;37835;53.256;6.456;2023-05-29T00:10:10;9.70;99.90
51765;DHT22;37835;53.256;6.456;2023-05-29T00:12:37;9.70;99.90
51765;DHT22;37835;53.256;6.456;2023-05-29T00:15:03;9.70;99.90
51765;DHT22;37835;53.256;6.456;2023-05-29T00:17:30;9.60;99.90
51765;DHT22;37835;53.256;6.456;2023-05-29T00:20:01;9.60;99.90
51765;DHT22;37835;53.256;6.456;2023-05-29T00:22:28;9.60;99.90
51765;DHT22;37835;53.256;6.456;2023-05-29T00:24:54;9.60;99.90
51765;DHT22;37835;53.256;6.456;2023-05-29T00:27:20;9.60;99.90
51765;DHT22;37835;53.256;6.456;2023-05-29T00:29:46;9.60;99.90
51765;DHT22;37835;53.256;6.456;2023-05-29T00:32:11;9.60;99.90
51765;DHT22;37835;53.256;6.456;2023-05-29T00:34:37;9.60;99.90
51765;DHT22;37835;53.256;6.456;2023-05-29T00:37:03;9.60;99.90
51765;DHT22;37835;53.256;6.456;2023-05-29T00:39:28;9.60;99.90
51765;DHT22;37835;53.256;6.456;2023-05-29T00:41:54;9.50;99.90
51765;DHT22;37835;53.256;6.456;2023-05-29T00:44:21;9.50;99.90
51765;DHT22;37835;53.256;6.456;2023-05-29T00:46:48;9.50;99.90
51765;DHT22;37835;53.256;6.456;2023-05-29T00:49:14;9.50;99.90
51765;DHT22;37835;53.256;6.456;2023-05-29T00:51:42;9.40;99.90
51765;DHT22;37835;53.256;6.456;2023-05-29T00:54:11;9.40;99.90
51765;DHT22;37835;53.256;6.456;2023-05-29T00:56:38;9.40;99.90
51765;DHT22;37835;53.256;6.456;2023-05-29T00:59:05;9.40;99.90
51765;DHT22;37835;53.256;6.456;2023-05-29T01:01:31;9.40;99.90
51765;DHT22;37835;53.256;6.456;2023-05-29T01:03:59;9.40;99.90
51765;DHT22;37835;53.256;6.456;2023-05-29T01:06:26;9.40;99.90
51765;DHT22;37835;53.256;6.456;2023-05-29T01:08:51;9.30;99.90
51765;DHT22;37835;53.256;6.456;2023-05-29T01:13:52;9.40;99.90
51765;DHT22;37835;53.256;6.456;2023-05-29T01:16:30;9.40;99.90
51765;DHT22;37835;53.256;6.456;2023-05-29T01:19:40;9.40;99.90
51765;DHT22;37835;53.256;6.456;2023-05-29T01:22:35;9.40;99.90
51765;DHT22;37835;53.256;6.456;2023-05-29T01:25:30;9.40;99.90
51765;DHT22;37835;53.256;6.456;2023-05-29T01:28:01;9.20;99.90
51765;DHT22;37835;53.256;6.456;2023-05-29T01:30:31;9.40;99.90
51765;DHT22;37835;53.256;6.456;2023-05-29T01:32:58;9.40;99.90
51765;DHT22;37835;53.256;6.456;2023-05-29T01:35:25;10.30;99.90
51765;DHT22;37835;53.256;6.456;2023-05-29T01:37:51;9.50;99.90
51765;DHT22;37835;53.256;6.456;2023-05-29T01:40:17;9.50;99.90
51765;DHT22;37835;53.256;6.456;2023-05-29T01:42:43;9.50;99.90
51765;DHT22;37835;53.256;6.456;2023-05-29T01:45:09;9.50;99.90
51765;DHT22;37835;53.256;6.456;2023-05-29T01:47:36;9.50;99.90
51765;DHT22;37835;53.256;6.456;2023-05-29T01:50:04;9.60;99.90
51765;DHT22;37835;53.256;6.456;2023-05-29T01:52:30;9.50;99.90
51765;DHT22;37835;53.256;6.456;2023-05-29T01:54:55;9.60;99.90
51765;DHT22;37835;53.256;6.456;2023-05-29T01:57:21;9.60;99.90
51765;DHT22;37835;53.256;6.456;2023-05-29T01:59:47;9.60;99.90
51765;DHT22;37835;53.256;6.456;2023-05-29T02:02:14;9.60;99.90
51765;DHT22;37835;53.256;6.456;2023-05-29T02:04:39;9.60;99.90
51765;DHT22;37835;53.256;6.456;2023-05-29T02:07:05;9.60;99.90
51765;DHT22;37835;53.256;6.456;2023-05-29T02:09:32;9.60;99.90
51765;DHT22;37835;53.256;6.456;2023-05-29T02:11:58;9.60;99.90
51765;DHT22;37835;53.256;6.456;2023-05-29T02:14:23;9.60;99.90
51765;DHT22;37835;53.256;6.456;2023-05-29T02:16:52;9.60;99.90
51765;DHT22;37835;53.256;6.456;2023-05-29T02:19:18;9.70;99.90
51765;DHT22;37835;53.256;6.456;2023-05-29T02:21:44;9.60;99.90
51765;DHT22;37835;53.256;6.456;2023-05-29T02:24:10;9.60;99.90
51765;DHT22;37835;53.256;6.456;2023-05-29T02:26:35;9.60;99.90
51765;DHT22;37835;53.256;6.456;2023-05-29T02:29:04;9.60;99.90
51765;DHT22;37835;53.256;6.456;2023-05-29T02:31:32;9.50;99.90
51765;DHT22;37835;53.256;6.456;2023-05-29T02:33:58;9.50;99.90
51765;DHT22;37835;53.256;6.456;2023-05-29T02:36:23;9.50;99.90
51765;DHT22;37835;53.256;6.456;2023-05-29T02:38:49;9.50;99.90
51765;DHT22;37835;53.256;6.456;2023-05-29T02:41:15;9.50;99.90
51765;DHT22;37835;53.256;6.456;2023-05-29T02:43:40;9.50;99.90
51765;DHT22;37835;53.256;6.456;2023-05-29T02:46:06;9.40;99.90
51765;DHT22;37835;53.256;6.456;2023-05-29T02:48:31;9.40;99.90
51765;DHT22;37835;53.256;6.456;2023-05-29T02:50:57;9.40;99.90
51765;DHT22;37835;53.256;6.456;2023-05-29T02:53:22;9.40;99.90
51765;DHT22;37835;53.256;6.456;2023-05-29T02:55:50;9.40;99.90
51765;DHT22;37835;53.256;6.456;2023-05-29T02:58:16;9.40;99.90
51765;DHT22;37835;53.256;6.456;2023-05-29T03:00:42;9.40;99.90
51765;DHT22;37835;53.256;6.456;2023-05-29T03:03:08;9.40;99.90
51765;DHT22;37835;53.256;6.456;2023-05-29T03:05:34;9.40;99.90
51765;DHT22;37835;53.256;6.456;2023-05-29T03:07:59;9.40;99.90
51765;DHT22;37835;53.256;6.456;2023-05-29T03:10:25;9.40;99.90
51765;DHT22;37835;53.256;6.456;2023-05-29T03:12:51;9.40;99.90
51765;DHT22;37835;53.256;6.456;2023-05-29T03:15:16;9.50;99.90
51765;DHT22;37835;53.256;6.456;2023-05-29T03:17:45;9.50;99.90
51765;DHT22;37835;53.256;6.456;2023-05-29T03:20:11;9.50;99.90
51765;DHT22;37835;53.256;6.456;2023-05-29T03:22:37;9.50;99.90
51765;DHT22;37835;53.256;6.456;2023-05-29T03:25:03;9.60;99.90
51765;DHT22;37835;53.256;6.456;2023-05-29T03:27:29;9.60;99.90
51765;DHT22;37835;53.256;6.456;2023-05-29T03:29:56;9.60;99.90
51765;DHT22;37835;53.256;6.456;2023-05-29T03:32:21;9.70;99.90
51765;DHT22;37835;53.256;6.456;2023-05-29T03:34:47;9.70;99.90
51765;DHT22;37835;53.256;6.456;2023-05-29T03:37:13;9.70;99.90
51765;DHT22;37835;53.256;6.456;2023-05-29T03:39:39;9.70;99.90
51765;DHT22;37835;53.256;6.456;2023-05-29T03:42:05;9.80;99.90
51765;DHT22;37835;53.256;6.456;2023-05-29T03:44:30;9.80;99.90
51765;DHT22;37835;53.256;6.456;2023-05-29T03:46:56;9.90;99.90
51765;DHT22;37835;53.256;6.456;2023-05-29T03:49:21;9.80;99.90
51765;DHT22;37835;53.256;6.456;2023-05-29T03:51:47;9.90;99.90
51765;DHT22;37835;53.256;6.456;2023-05-29T03:54:13;9.90;99.90
51765;DHT22;37835;53.256;6.456;2023-05-29T03:56:38;9.90;99.90
51765;DHT22;37835;53.256;6.456;2023-05-29T03:59:04;9.90;99.90
51765;DHT22;37835;53.256;6.456;2023-05-29T04:01:29;9.90;99.90
51765;DHT22;37835;53.256;6.456;2023-05-29T04:03:55;9.90;99.90
51765;DHT22;37835;53.256;6.456;2023-05-29T04:06:21;9.90;99.90
51765;DHT22;37835;53.256;6.456;2023-05-29T04:08:47;9.90;99.90
51765;DHT22;37835;53.256;6.456;2023-05-29T04:11:13;10.00;99.90
51765;DHT22;37835;53.256;6.456;2023-05-29T04:13:39;10.00;99.90
51765;DHT22;37835;53.256;6.456;2023-05-29T04:16:05;10.00;99.90
51765;DHT22;37835;53.256;6.456;2023-05-29T04:18:31;10.00;99.90
51765;DHT22;37835;53.256;6.456;2023-05-29T04:20:56;10.00;99.90
51765;DHT22;37835;53.256;6.456;2023-05-29T04:23:22;10.00;99.90
51765;DHT22;37835;53.256;6.456;2023-05-29T04:25:48;10.00;99.90
51765;DHT22;37835;53.256;6.456;2023-05-29T04:28:16;10.00;99.90
51765;DHT22;37835;53.256;6.456;2023-05-29T04:30:42;10.00;99.90
51765;DHT22;37835;53.256;6.456;2023-05-29T04:33:08;10.00;99.90
51765;DHT22;37835;53.256;6.456;2023-05-29T04:35:35;10.00;99.90
51765;DHT22;37835;53.256;6.456;2023-05-29T04:38:01;10.10;99.90
51765;DHT22;37835;53.256;6.456;2023-05-29T04:40:26;10.10;99.90
51765;DHT22;37835;53.256;6.456;2023-05-29T04:42:52;10.10;99.90
51765;DHT22;37835;53.256;6.456;2023-05-29T04:45:19;10.10;99.90
51765;DHT22;37835;53.256;6.456;2023-05-29T04:47:46;10.20;99.90
51765;DHT22;37835;53.256;6.456;2023-05-29T04:50:15;10.20;99.90
51765;DHT22;37835;53.256;6.456;2023-05-29T04:52:41;10.20;99.90
51765;DHT22;37835;53.256;6.456;2023-05-29T04:55:09;10.20;99.90
51765;DHT22;37835;53.256;6.456;2023-05-29T04:57:35;10.20;99.90
51765;DHT22;37835;53.256;6.456;2023-05-29T05:00:01;10.20;99.90
51765;DHT22;37835;53.256;6.456;2023-05-29T05:02:30;10.10;99.90
51765;DHT22;37835;53.256;6.456;2023-05-29T05:04:56;10.20;99.90
51765;DHT22;37835;53.256;6.456;2023-05-29T05:07:22;10.20;99.90
51765;DHT22;37835;53.256;6.456;2023-05-29T05:09:47;10.30;99.90
51765;DHT22;37835;53.256;6.456;2023-05-29T05:12:13;10.30;99.90
51765;DHT22;37835;53.256;6.456;2023-05-29T05:14:38;10.40;99.90
51765;DHT22;37835;53.256;6.456;2023-05-29T05:17:04;10.30;99.90
51765;DHT22;37835;53.256;6.456;2023-05-29T05:19:30;10.30;99.90
51765;DHT22;37835;53.256;6.456;2023-05-29T05:21:55;10.40;99.90
51765;DHT22;37835;53.256;6.456;2023-05-29T05:24:21;10.50;99.90
51765;DHT22;37835;53.256;6.456;2023-05-29T05:26:47;10.50;99.90
51765;DHT22;37835;53.256;6.456;2023-05-29T05:29:13;10.50;99.90
51765;DHT22;37835;53.256;6.456;2023-05-29T05:31:39;10.70;99.90
51765;DHT22;37835;53.256;6.456;2023-05-29T05:34:04;10.60;99.90
51765;DHT22;37835;53.256;6.456;2023-05-29T05:36:30;10.60;99.90
51765;DHT22;37835;53.256;6.456;2023-05-29T05:38:56;10.70;99.90
51765;DHT22;37835;53.256;6.456;2023-05-29T05:41:22;10.70;99.90
51765;DHT22;37835;53.256;6.456;2023-05-29T05:43:47;10.80;99.90
51765;DHT22;37835;53.256;6.456;2023-05-29T05:46:13;10.80;99.90
51765;DHT22;37835;53.256;6.456;2023-05-29T05:48:40;10.80;99.90
51765;DHT22;37835;53.256;6.456;2023-05-29T05:51:06;10.90;99.90
51765;DHT22;37835;53.256;6.456;2023-05-29T05:53:31;11.00;99.90
51765;DHT22;37835;53.256;6.456;2023-05-29T05:55:57;11.00;99.90
51765;DHT22;37835;53.256;6.456;2023-05-29T05:58:22;11.10;99.90
51765;DHT22;37835;53.256;6.456;2023-05-29T06:00:48;11.10;99.90
51765;DHT22;37835;53.256;6.456;2023-05-29T06:03:18;11.20;99.90
51765;DHT22;37835;53.256;6.456;2023-05-29T06:05:43;11.20;99.90
51765;DHT22;37835;53.256;6.456;2023-05-29T06:08:09;11.10;99.90
51765;DHT22;37835;53.256;6.456;2023-05-29T06:10:35;11.30;99.90
51765;DHT22;37835;53.256;6.456;2023-05-29T06:13:01;11.30;99.90
51765;DHT22;37835;53.256;6.456;2023-05-29T06:15:27;11.40;99.90
51765;DHT22;37835;53.256;6.456;2023-05-29T06:17:52;11.40;99.90
51765;DHT22;37835;53.256;6.456;2023-05-29T06:20:20;11.50;99.90
51765;DHT22;37835;53.256;6.456;2023-05-29T06:22:46;11.50;99.90
51765;DHT22;37835;53.256;6.456;2023-05-29T06:25:16;11.50;99.90
51765;DHT22;37835;53.256;6.456;2023-05-29T06:27:42;11.50;99.90
51765;DHT22;37835;53.256;6.456;2023-05-29T06:30:08;11.50;99.90
51765;DHT22;37835;53.256;6.456;2023-05-29T06:32:34;11.50;99.90
51765;DHT22;37835;53.256;6.456;2023-05-29T06:34:59;11.60;99.90
51765;DHT22;37835;53.256;6.456;2023-05-29T06:37:25;11.60;99.90
51765;DHT22;37835;53.256;6.456;2023-05-29T06:39:51;11.70;99.90
51765;DHT22;37835;53.256;6.456;2023-05-29T06:42:16;11.70;99.90
51765;DHT22;37835;53.256;6.456;2023-05-29T06:44:42;11.70;99.90
51765;DHT22;37835;53.256;6.456;2023-05-29T06:47:07;11.80;99.90
51765;DHT22;37835;53.256;6.456;2023-05-29T06:49:33;11.90;99.90
51765;DHT22;37835;53.256;6.456;2023-05-29T06:51:59;11.90;99.90
51765;DHT22;37835;53.256;6.456;2023-05-29T06:54:25;12.00;99.90
51765;DHT22;37835;53.256;6.456;2023-05-29T06:56:51;12.00;99.90
51765;DHT22;37835;53.256;6.456;2023-05-29T06:59:16;12.00;99.90
51765;DHT22;37835;53.256;6.456;2023-05-29T07:01:42;12.10;99.90
51765;DHT22;37835;53.256;6.456;2023-05-29T07:04:07;12.10;99.90
51765;DHT22;37835;53.256;6.456;2023-05-29T07:06:33;12.10;99.90
51765;DHT22;37835;53.256;6.456;2023-05-29T07:08:59;12.10;99.90
51765;DHT22;37835;53.256;6.456;2023-05-29T07:11:25;12.10;99.90
51765;DHT22;37835;53.256;6.456;2023-05-29T07:13:53;12.10;99.90
51765;DHT22;37835;53.256;6.456;2023-05-29T07:16:19;12.00;99.90
51765;DHT22;37835;53.256;6.456;2023-05-29T07:18:45;12.10;99.90
51765;DHT22;37835;53.256;6.456;2023-05-29T07:21:11;12.10;99.90
51765;DHT22;37835;53.256;6.456;2023-05-29T07:23:36;12.10;99.90
51765;DHT22;37835;53.256;6.456;2023-05-29T07:26:02;12.10;99.90
51765;DHT22;37835;53.256;6.456;2023-05-29T07:28:27;12.20;99.90
51765;DHT22;37835;53.256;6.456;2023-05-29T07:30:53;12.30;99.90
51765;DHT22;37835;53.256;6.456;2023-05-29T07:33:19;12.40;99.90
51765;DHT22;37835;53.256;6.456;2023-05-29T07:35:44;12.40;99.90
51765;DHT22;37835;53.256;6.456;2023-05-29T07:38:10;12.50;99.90
51765;DHT22;37835;53.256;6.456;2023-05-29T07:40:36;12.50;99.90
51765;DHT22;37835;53.256;6.456;2023-05-29T07:43:01;12.50;99.90
51765;DHT22;37835;53.256;6.456;2023-05-29T07:45:27;12.60;99.90
51765;DHT22;37835;53.256;6.456;2023-05-29T07:47:52;12.60;99.90
51765;DHT22;37835;53.256;6.456;2023-05-29T07:50:18;12.70;99.90
51765;DHT22;37835;53.256;6.456;2023-05-29T07:52:43;12.70;99.90
51765;DHT22;37835;53.256;6.456;2023-05-29T07:55:09;12.70;99.90
51765;DHT22;37835;53.256;6.456;2023-05-29T07:57:35;12.80;99.90
51765;DHT22;37835;53.256;6.456;2023-05-29T08:00:01;12.90;99.90
51765;DHT22;37835;53.256;6.456;2023-05-29T08:02:36;12.90;99.90
51765;DHT22;37835;53.256;6.456;2023-05-29T08:05:03;12.90;99.90
51765;DHT22;37835;53.256;6.456;2023-05-29T08:07:29;13.00;99.90
51765;DHT22;37835;53.256;6.456;2023-05-29T08:09:54;13.20;99.90
51765;DHT22;37835;53.256;6.456;2023-05-29T08:12:20;13.30;99.90
51765;DHT22;37835;53.256;6.456;2023-05-29T08:14:46;13.20;99.90
51765;DHT22;37835;53.256;6.456;2023-05-29T08:17:12;13.20;99.90
51765;DHT22;37835;53.256;6.456;2023-05-29T08:19:37;13.20;99.90
51765;DHT22;37835;53.256;6.456;2023-05-29T08:22:03;13.10;99.90
51765;DHT22;37835;53.256;6.456;2023-05-29T08:24:29;13.10;99.90
51765;DHT22;37835;53.256;6.456;2023-05-29T08:26:54;13.10;99.90
51765;DHT22;37835;53.256;6.456;2023-05-29T08:29:20;13.10;99.90
51765;DHT22;37835;53.256;6.456;2023-05-29T08:31:45;13.20;99.90
51765;DHT22;37835;53.256;6.456;2023-05-29T08:34:11;13.20;99.90
51765;DHT22;37835;53.256;6.456;2023-05-29T08:36:37;13.30;99.90
51765;DHT22;37835;53.256;6.456;2023-05-29T08:39:02;13.30;99.90
51765;DHT22;37835;53.256;6.456;2023-05-29T08:41:41;13.30;99.90
51765;DHT22;37835;53.256;6.456;2023-05-29T08:44:13;13.30;99.90
51765;DHT22;37835;53.256;6.456;2023-05-29T08:46:40;13.30;99.90
51765;DHT22;37835;53.256;6.456;2023-05-29T08:49:08;13.30;99.90
51765;DHT22;37835;53.256;6.456;2023-05-29T08:51:37;13.30;99.90
51765;DHT22;37835;53.256;6.456;2023-05-29T08:54:03;13.40;99.90
51765;DHT22;37835;53.256;6.456;2023-05-29T08:56:29;13.30;99.90
51765;DHT22;37835;53.256;6.456;2023-05-29T08:58:56;13.30;99.90
51765;DHT22;37835;53.256;6.456;2023-05-29T09:01:23;13.20;99.90
51765;DHT22;37835;53.256;6.456;2023-05-29T09:03:50;13.30;99.90
51765;DHT22;37835;53.256;6.456;2023-05-29T09:06:15;13.20;99.90
51765;DHT22;37835;53.256;6.456;2023-05-29T09:08:42;13.30;99.90
51765;DHT22;37835;53.256;6.456;2023-05-29T09:11:08;13.20;99.90
51765;DHT22;37835;53.256;6.456;2023-05-29T09:13:34;13.20;99.90
51765;DHT22;37835;53.256;6.456;2023-05-29T09:16:01;13.20;99.90
51765;DHT22;37835;53.256;6.456;2023-05-29T09:18:30;13.20;99.90
51765;DHT22;37835;53.256;6.456;2023-05-29T09:20:56;13.30;99.90
51765;DHT22;37835;53.256;6.456;2023-05-29T09:23:22;13.30;99.90
51765;DHT22;37835;53.256;6.456;2023-05-29T09:25:52;13.30;99.90
51765;DHT22;37835;53.256;6.456;2023-05-29T09:28:18;13.40;99.90
51765;DHT22;37835;53.256;6.456;2023-05-29T09:30:47;13.50;99.90
51765;DHT22;37835;53.256;6.456;2023-05-29T09:33:14;13.50;99.90
51765;DHT22;37835;53.256;6.456;2023-05-29T09:35:44;13.50;99.90
51765;DHT22;37835;53.256;6.456;2023-05-29T09:38:15;13.60;99.90
51765;DHT22;37835;53.256;6.456;2023-05-29T09:40:42;13.60;99.90
51765;DHT22;37835;53.256;6.456;2023-05-29T09:43:15;13.70;99.90
51765;DHT22;37835;53.256;6.456;2023-05-29T09:45:44;13.70;99.90
51765;DHT22;37835;53.256;6.456;2023-05-29T09:48:18;13.70;99.90
51765;DHT22;37835;53.256;6.456;2023-05-29T09:50:44;13.70;99.90
51765;DHT22;37835;53.256;6.456;2023-05-29T09:53:20;13.60;99.90
51765;DHT22;37835;53.256;6.456;2023-05-29T09:55:47;13.60;99.90
51765;DHT22;37835;53.256;6.456;2023-05-29T09:58:14;13.60;99.90
51765;DHT22;37835;53.256;6.456;2023-05-29T10:00:42;13.70;99.90
51765;DHT22;37835;53.256;6.456;2023-05-29T10:03:09;13.70;99.90
51765;DHT22;37835;53.256;6.456;2023-05-29T10:05:35;13.80;99.90
51765;DHT22;37835;53.256;6.456;2023-05-29T10:08:02;13.90;99.90
51765;DHT22;37835;53.256;6.456;2023-05-29T10:10:30;14.00;99.90
51765;DHT22;37835;53.256;6.456;2023-05-29T10:12:57;14.00;99.90
51765;DHT22;37835;53.256;6.456;2023-05-29T10:15:23;14.10;99.90
51765;DHT22;37835;53.256;6.456;2023-05-29T10:18:13;14.10;99.90
51765;DHT22;37835;53.256;6.456;2023-05-29T10:20:43;14.10;99.90
51765;DHT22;37835;53.256;6.456;2023-05-29T10:23:10;14.10;99.90
51765;DHT22;37835;53.256;6.456;2023-05-29T10:25:37;14.10;99.90
51765;DHT22;37835;53.256;6.456;2023-05-29T10:28:04;14.20;99.90
51765;DHT22;37835;53.256;6.456;2023-05-29T10:30:41;14.20;99.90
51765;DHT22;37835;53.256;6.456;2023-05-29T10:33:25;14.30;99.90
51765;DHT22;37835;53.256;6.456;2023-05-29T10:36:07;14.30;99.90
51765;DHT22;37835;53.256;6.456;2023-05-29T10:38:35;14.40;99.90
51765;DHT22;37835;53.256;6.456;2023-05-29T10:43:55;14.40;99.90
51765;DHT22;37835;53.256;6.456;2023-05-29T10:46:21;14.50;99.90
51765;DHT22;37835;53.256;6.456;2023-05-29T10:49:16;14.60;99.90
51765;DHT22;37835;53.256;6.456;2023-05-29T10:51:42;14.80;99.90
51765;DHT22;37835;53.256;6.456;2023-05-29T10:54:07;14.60;99.90
51765;DHT22;37835;53.256;6.456;2023-05-29T10:56:33;14.70;99.90
51765;DHT22;37835;53.256;6.456;2023-05-29T10:58:59;14.70;99.90
51765;DHT22;37835;53.256;6.456;2023-05-29T11:01:28;14.70;99.90
51765;DHT22;37835;53.256;6.456;2023-05-29T11:06:38;14.70;99.90
51765;DHT22;37835;53.256;6.456;2023-05-29T11:09:04;14.70;99.90
51765;DHT22;37835;53.256;6.456;2023-05-29T11:11:34;14.70;99.90
51765;DHT22;37835;53.256;6.456;2023-05-29T11:14:06;14.70;99.90
51765;DHT22;37835;53.256;6.456;2023-05-29T11:18:59;14.70;99.90
51765;DHT22;37835;53.256;6.456;2023-05-29T11:21:37;14.80;99.90
51765;DHT22;37835;53.256;6.456;2023-05-29T11:24:04;14.80;99.90
51765;DHT22;37835;53.256;6.456;2023-05-29T11:26:33;14.90;99.90
51765;DHT22;37835;53.256;6.456;2023-05-29T11:29:01;14.90;99.90
51765;DHT22;37835;53.256;6.456;2023-05-29T11:31:28;14.90;99.90
51765;DHT22;37835;53.256;6.456;2023-05-29T11:33:59;15.00;99.90
51765;DHT22;37835;53.256;6.456;2023-05-29T11:36:26;15.00;99.90
51765;DHT22;37835;53.256;6.456;2023-05-29T11:38:53;15.00;99.90
51765;DHT22;37835;53.256;6.456;2023-05-29T11:41:18;15.10;99.90
51765;DHT22;37835;53.256;6.456;2023-05-29T11:43:44;15.20;99.90
51765;DHT22;37835;53.256;6.456;2023-05-29T11:46:18;15.30;99.90
51765;DHT22;37835;53.256;6.456;2023-05-29T11:48:45;15.30;99.90
51765;DHT22;37835;53.256;6.456;2023-05-29T11:51:11;15.30;99.90
51765;DHT22;37835;53.256;6.456;2023-05-29T11:53:40;15.30;99.90
51765;DHT22;37835;53.256;6.456;2023-05-29T11:56:08;15.30;99.90
51765;DHT22;37835;53.256;6.456;2023-05-29T11:58:36;15.40;99.90
51765;DHT22;37835;53.256;6.456;2023-05-29T12:01:02;15.40;99.90
51765;DHT22;37835;53.256;6.456;2023-05-29T12:03:28;15.50;99.90
51765;DHT22;37835;53.256;6.456;2023-05-29T12:05:53;15.60;99.90
51765;DHT22;37835;53.256;6.456;2023-05-29T12:08:24;15.50;99.90
51765;DHT22;37835;53.256;6.456;2023-05-29T12:10:51;15.50;99.90
51765;DHT22;37835;53.256;6.456;2023-05-29T12:13:21;15.60;99.90
51765;DHT22;37835;53.256;6.456;2023-05-29T12:15:47;15.60;99.90
51765;DHT22;37835;53.256;6.456;2023-05-29T12:18:14;15.50;99.90
51765;DHT22;37835;53.256;6.456;2023-05-29T12:20:40;15.60;99.90
51765;DHT22;37835;53.256;6.456;2023-05-29T12:23:06;15.60;99.90
51765;DHT22;37835;53.256;6.456;2023-05-29T12:25:34;15.60;99.90
51765;DHT22;37835;53.256;6.456;2023-05-29T12:28:03;15.50;99.90
51765;DHT22;37835;53.256;6.456;2023-05-29T12:30:29;15.60;99.90
51765;DHT22;37835;53.256;6.456;2023-05-29T12:32:56;15.60;99.90
51765;DHT22;37835;53.256;6.456;2023-05-29T12:35:23;15.70;99.90
51765;DHT22;37835;53.256;6.456;2023-05-29T12:40:24;15.80;99.90
51765;DHT22;37835;53.256;6.456;2023-05-29T12:43:00;15.80;99.90
51765;DHT22;37835;53.256;6.456;2023-05-29T12:45:28;15.80;99.90
51765;DHT22;37835;53.256;6.456;2023-05-29T12:48:05;15.90;99.90
51765;DHT22;37835;53.256;6.456;2023-05-29T12:50:38;16.00;99.90
51765;DHT22;37835;53.256;6.456;2023-05-29T12:53:05;16.00;99.90
51765;DHT22;37835;53.256;6.456;2023-05-29T12:55:33;16.00;99.90
51765;DHT22;37835;53.256;6.456;2023-05-29T12:58:03;16.00;99.90
51765;DHT22;37835;53.256;6.456;2023-05-29T13:00:28;16.10;99.90
51765;DHT22;37835;53.256;6.456;2023-05-29T13:02:55;16.10;99.90
51765;DHT22;37835;53.256;6.456;2023-05-29T13:05:20;16.00;99.90
51765;DHT22;37835;53.256;6.456;2023-05-29T13:07:51;16.10;99.90
51765;DHT22;37835;53.256;6.456;2023-05-29T13:10:18;16.00;99.90
51765;DHT22;37835;53.256;6.456;2023-05-29T13:12:44;16.10;99.90
51765;DHT22;37835;53.256;6.456;2023-05-29T13:15:11;16.00;99.90
51765;DHT22;37835;53.256;6.456;2023-05-29T13:17:38;16.10;99.90
51765;DHT22;37835;53.256;6.456;2023-05-29T13:20:08;16.10;99.90
51765;DHT22;37835;53.256;6.456;2023-05-29T13:22:35;16.10;99.90
51765;DHT22;37835;53.256;6.456;2023-05-29T13:25:01;16.30;99.90
51765;DHT22;37835;53.256;6.456;2023-05-29T13:27:26;16.20;99.90
51765;DHT22;37835;53.256;6.456;2023-05-29T13:29:53;16.20;99.90
51765;DHT22;37835;53.256;6.456;2023-05-29T13:32:19;16.30;99.90
51765;DHT22;37835;53.256;6.456;2023-05-29T13:34:45;16.30;99.90
51765;DHT22;37835;53.256;6.456;2023-05-29T13:37:11;16.30;99.90
51765;DHT22;37835;53.256;6.456;2023-05-29T13:39:37;16.30;99.90
51765;DHT22;37835;53.256;6.456;2023-05-29T13:42:02;16.30;99.90
51765;DHT22;37835;53.256;6.456;2023-05-29T13:44:29;16.30;99.90
51765;DHT22;37835;53.256;6.456;2023-05-29T13:46:54;16.40;99.90
51765;DHT22;37835;53.256;6.456;2023-05-29T13:49:20;16.30;99.90
51765;DHT22;37835;53.256;6.456;2023-05-29T13:51:46;16.30;99.90
51765;DHT22;37835;53.256;6.456;2023-05-29T13:54:15;16.30;99.90
51765;DHT22;37835;53.256;6.456;2023-05-29T13:56:41;16.30;99.90
51765;DHT22;37835;53.256;6.456;2023-05-29T13:59:06;16.30;99.90
51765;DHT22;37835;53.256;6.456;2023-05-29T14:01:35;16.40;99.90
51765;DHT22;37835;53.256;6.456;2023-05-29T14:04:00;16.40;99.90
51765;DHT22;37835;53.256;6.456;2023-05-29T14:06:26;16.40;99.90
51765;DHT22;37835;53.256;6.456;2023-05-29T14:08:52;16.40;99.90
51765;DHT22;37835;53.256;6.456;2023-05-29T14:11:18;16.50;99.90
51765;DHT22;37835;53.256;6.456;2023-05-29T14:13:44;16.40;99.90
51765;DHT22;37835;53.256;6.456;2023-05-29T14:16:09;16.50;99.90
51765;DHT22;37835;53.256;6.456;2023-05-29T14:18:35;16.50;99.90
51765;DHT22;37835;53.256;6.456;2023-05-29T14:21:00;16.60;99.90
51765;DHT22;37835;53.256;6.456;2023-05-29T14:23:26;16.60;99.90
51765;DHT22;37835;53.256;6.456;2023-05-29T14:25:52;16.60;99.90
51765;DHT22;37835;53.256;6.456;2023-05-29T14:28:17;16.60;99.90
51765;DHT22;37835;53.256;6.456;2023-05-29T14:30:43;16.50;99.90
51765;DHT22;37835;53.256;6.456;2023-05-29T14:33:09;16.50;99.90
51765;DHT22;37835;53.256;6.456;2023-05-29T14:35:35;16.50;99.90
51765;DHT22;37835;53.256;6.456;2023-05-29T14:38:00;16.50;99.90
51765;DHT22;37835;53.256;6.456;2023-05-29T14:40:26;16.50;99.90
51765;DHT22;37835;53.256;6.456;2023-05-29T14:45:26;16.70;99.90
51765;DHT22;37835;53.256;6.456;2023-05-29T14:47:51;16.70;99.90
51765;DHT22;37835;53.256;6.456;2023-05-29T14:50:17;16.70;99.90
51765;DHT22;37835;53.256;6.456;2023-05-29T14:52:42;16.80;99.90
51765;DHT22;37835;53.256;6.456;2023-05-29T14:55:08;16.80;99.90
51765;DHT22;37835;53.256;6.456;2023-05-29T14:57:33;16.80;99.90
51765;DHT22;37835;53.256;6.456;2023-05-29T15:00:04;16.90;99.90
51765;DHT22;37835;53.256;6.456;2023-05-29T15:02:31;16.90;99.90
51765;DHT22;37835;53.256;6.456;2023-05-29T15:04:57;16.90;99.90
51765;DHT22;37835;53.256;6.456;2023-05-29T15:07:23;16.90;99.90
51765;DHT22;37835;53.256;6.456;2023-05-29T15:09:48;16.90;99.90
51765;DHT22;37835;53.256;6.456;2023-05-29T15:12:14;16.90;99.90
51765;DHT22;37835;53.256;6.456;2023-05-29T15:14:39;16.90;99.90
51765;DHT22;37835;53.256;6.456;2023-05-29T15:17:05;16.90;99.90
51765;DHT22;37835;53.256;6.456;2023-05-29T15:19:32;16.90;99.90
51765;DHT22;37835;53.256;6.456;2023-05-29T15:21:59;17.00;99.90
51765;DHT22;37835;53.256;6.456;2023-05-29T15:24:24;16.90;99.90
51765;DHT22;37835;53.256;6.456;2023-05-29T15:26:50;16.90;99.90
51765;DHT22;37835;53.256;6.456;2023-05-29T15:29:16;16.90;99.90
51765;DHT22;37835;53.256;6.456;2023-05-29T15:31:42;16.90;99.90
51765;DHT22;37835;53.256;6.456;2023-05-29T15:34:11;16.80;99.90
51765;DHT22;37835;53.256;6.456;2023-05-29T15:36:36;16.80;99.90
51765;DHT22;37835;53.256;6.456;2023-05-29T15:39:03;16.80;99.90
51765;DHT22;37835;53.256;6.456;2023-05-29T15:41:29;16.80;99.90
51765;DHT22;37835;53.256;6.456;2023-05-29T15:43:56;16.80;99.90
51765;DHT22;37835;53.256;6.456;2023-05-29T15:46:25;16.80;99.90
51765;DHT22;37835;53.256;6.456;2023-05-29T15:48:52;16.80;99.90